McCarthy, AK

10:41 PM AKST on January 28, 2015 (GMT -0900)
Gulkana | Change Station
CLOSE
Current Station
Airport
Location: Gulkana,
Elevation: 1578 ft
Nearby Weather Stations

Elev 1578 ft 62.16 °N, 145.46 °W | Updated 48 minutes ago

Clear
Clear
-28 °F
Feels Like -40 °F
N
4
Wind Variable Wind from NNW

Today
High -- | Low -- °F
--% Chance of Precip.
Yesterday
High -- | Low -- °F
Precip. -- in
9:03 AM 4:26 PM
Waxing Gibbous, 72% visible
Pressure 30.45 in
Visibility 10.0 miles
Clouds Clear
Windchill -40 °F
Dew Point -35 °F
Humidity 69%
Rainfall 0.00 in
Snow Depth Not available.
UV 0 out of 12
Pollen Not available.
Air Quality Not available.
Flu Activity Not available.
METAR PAGK 290653Z AUTO 33003KT 10SM CLR M33/M37 A3015 RMK AO2 SLP311 T13331372 TSNO

More Conditions Fewer Conditions

Pressure 30.45 in
Visibility 10.0 miles
Clouds Clear
Windchill -40 °F
Dew Point -35 °F
Humidity 69%
Rainfall 0.00 in
Snow Depth Not available.
UV 0 out of 12
Pollen Not available.
Air Quality Not available.
Flu Activity Not available.
METAR PAGK 290653Z AUTO 33003KT 10SM CLR M33/M37 A3015 RMK AO2 SLP311 T13331372 TSNO

More Conditions Fewer Conditions

10-Day Weather Forecast

Almanac

Astronomy

Jan. 28, 2015 Rise Set
Actual Time
Civil Twilight
Nautical Twilight
Astronomical Twilight
Moon
Length of Visible Light
Length of Day
Tomorrow will be .
, % of the Moon is Illuminated

Today's Extremes

State Highs State Lows

Community

WunderPhotos

Upload Photos

1,791,387 photos uploaded!

WunderBlogs® & News

Nearby

Air Quality

  Air Quality AQ Index Pollutant
Not available.

Snow Depth

Station Depth Elevation

Earthquake Activity

City Distance Mag. Time & Date
Minimum magnitude displayed is 2.5.

Coastal Water Temperatures

Place Temperature

Nearby Weather Stations